Time;durP1;ratioP1;P1;durP2;ratioP2;P2;SDS_P1;SDS_P2;PMS_P1;PMS_P2;Temp;Humidity;BMP_temperature;BMP_pressure;BME280_temperature;BME280_humidity;BME280_pressure;Samples;Min_cycle;Max_cycle;Signal;HPM_P1;HPM_P2
2023/08/14 00:00:42;;;;;;;1.17;0.50;;;17.50;1.00;;;;;;5021713;28;20099;-79
2023/08/14 00:03:09;;;;;;;1.08;0.40;;;17.50;1.00;;;;;;5021997;28;20061;-79
2023/08/14 00:05:36;;;;;;;1.13;0.60;;;17.50;1.00;;;;;;4984888;28;20112;-79
2023/08/14 00:08:03;;;;;;;0.93;0.45;;;17.50;15.90;;;;;;5014363;28;20815;-78
2023/08/14 00:10:30;;;;;;;1.05;0.50;;;17.40;69.80;;;;;;5021185;28;20404;-78
2023/08/14 00:12:56;;;;;;;1.48;0.52;;;17.40;99.90;;;;;;5022215;28;20049;-79
2023/08/14 00:15:23;;;;;;;1.50;0.45;;;17.40;99.90;;;;;;5020820;28;20504;-79
2023/08/14 00:17:51;;;;;;;1.13;0.43;;;17.40;99.90;;;;;;5022161;28;20068;-79
2023/08/14 00:20:19;;;;;;;0.77;0.50;;;17.40;99.90;;;;;;5005068;28;20141;-79
2023/08/14 00:22:46;;;;;;;1.05;0.50;;;17.40;99.90;;;;;;5005796;28;20107;-79
2023/08/14 00:25:12;;;;;;;0.80;0.47;;;17.40;99.90;;;;;;5019880;28;20045;-79
2023/08/14 00:27:39;;;;;;;0.50;0.32;;;17.30;99.90;;;;;;5023509;28;20045;-79
2023/08/14 00:30:06;;;;;;;0.85;0.60;;;17.30;99.90;;;;;;5022857;28;20123;-79
2023/08/14 00:32:33;;;;;;;0.70;0.30;;;17.30;99.90;;;;;;5021578;28;20547;-78
2023/08/14 00:35:00;;;;;;;0.95;0.47;;;17.40;99.90;;;;;;4988364;28;20124;-79
2023/08/14 00:37:46;;;;;;;1.08;0.43;;;17.40;1.00;;;;;;4989244;28;20053;-79
2023/08/14 00:40:14;;;;;;;0.63;0.30;;;17.30;1.00;;;;;;4988782;28;20046;-79
2023/08/14 00:42:47;;;;;;;1.02;0.40;;;17.30;1.00;;;;;;5005100;28;20072;-78
2023/08/14 00:45:15;;;;;;;1.10;0.35;;;17.30;1.00;;;;;;5021197;28;20057;-78
2023/08/14 00:47:44;;;;;;;0.70;0.50;;;17.30;1.00;;;;;;5004949;28;20653;-78
2023/08/14 00:50:11;;;;;;;0.68;0.43;;;17.30;1.00;;;;;;5006848;28;20050;-78
2023/08/14 00:52:39;;;;;;;0.93;0.30;;;17.30;15.70;;;;;;5009432;28;20111;-79
2023/08/14 00:55:08;;;;;;;0.57;0.30;;;17.30;36.40;;;;;;5007213;28;20361;-79
2023/08/14 00:57:35;;;;;;;0.60;0.30;;;17.40;46.60;;;;;;5025912;28;20607;-78
2023/08/14 01:00:04;;;;;;;0.60;0.40;;;17.40;54.90;;;;;;5009695;28;20103;-79
2023/08/14 01:02:31;;;;;;;0.43;0.30;;;17.40;59.00;;;;;;5025629;28;20511;-79
2023/08/14 01:04:58;;;;;;;0.98;0.52;;;17.40;78.60;;;;;;5024388;28;20682;-80
2023/08/14 01:07:24;;;;;;;0.15;0.15;;;17.40;57.40;;;;;;5016977;28;20076;-79
2023/08/14 01:09:51;;;;;;;1.75;0.47;;;17.40;66.80;;;;;;5005588;28;20045;-79
2023/08/14 01:12:48;;;;;;;0.55;0.50;;;17.40;90.70;;;;;;5015366;28;20107;-79
2023/08/14 01:15:25;;;;;;;1.33;0.35;;;17.40;99.90;;;;;;5024294;28;20119;-78
2023/08/14 01:17:58;;;;;;;0.88;0.40;;;17.50;94.20;;;;;;5025327;28;20054;-78
2023/08/14 01:20:27;;;;;;;0.80;0.40;;;17.50;71.50;;;;;;5024379;28;20049;-78
2023/08/14 01:22:55;;;;;;;0.50;0.30;;;17.50;73.10;;;;;;5024506;28;20057;-78
2023/08/14 01:25:29;;;;;;;0.60;0.40;;;17.50;75.50;;;;;;5006708;28;20068;-78
2023/08/14 01:27:56;;;;;;;0.85;0.40;;;17.50;73.10;;;;;;5024859;28;20049;-78
2023/08/14 01:30:23;;;;;;;0.10;0.10;;;17.50;99.90;;;;;;5022012;28;20061;-78
2023/08/14 01:32:50;;;;;;;0.47;0.28;;;17.50;91.80;;;;;;5017522;28;20056;-78
2023/08/14 01:35:18;;;;;;;1.10;0.30;;;17.50;92.60;;;;;;5010204;28;20129;-78
2023/08/14 01:38:06;;;;;;;0.57;0.32;;;17.40;77.90;;;;;;5010217;28;20049;-78
2023/08/14 01:40:55;;;;;;;1.00;0.40;;;17.50;84.50;;;;;;5025091;28;20590;-78
2023/08/14 01:43:26;;;;;;;0.85;0.22;;;17.50;9.50;;;;;;5009712;28;20041;-78
2023/08/14 01:45:53;;;;;;;0.75;0.40;;;17.50;28.30;;;;;;5009871;28;20100;-78
2023/08/14 01:48:21;;;;;;;0.88;0.40;;;17.50;26.00;;;;;;5026836;28;20093;-78
2023/08/14 01:50:48;;;;;;;1.50;0.25;;;17.50;1.00;;;;;;4996829;28;20123;-78
2023/08/14 01:53:16;;;;;;;0.45;0.22;;;17.50;1.00;;;;;;5022897;28;20566;-78
2023/08/14 01:55:44;;;;;;;1.10;0.40;;;17.50;1.00;;;;;;5005093;28;20116;-78
2023/08/14 01:58:10;;;;;;;0.45;0.35;;;17.60;1.00;;;;;;4978801;28;20080;-78
2023/08/14 02:00:37;;;;;;;0.32;0.17;;;17.60;1.00;;;;;;5024527;28;20501;-78
2023/08/14 02:03:04;;;;;;;0.75;0.40;;;17.60;99.90;;;;;;5007363;28;20111;-78
2023/08/14 02:05:31;;;;;;;1.10;0.40;;;17.60;99.90;;;;;;5024258;28;20129;-78
2023/08/14 02:07:58;;;;;;;1.27;0.30;;;17.60;99.90;;;;;;5005837;28;20495;-78
2023/08/14 02:10:25;;;;;;;0.90;0.40;;;17.60;99.90;;;;;;5004386;28;20107;-79
2023/08/14 02:12:52;;;;;;;0.25;0.22;;;17.60;99.90;;;;;;5018418;28;20098;-78
2023/08/14 02:15:20;;;;;;;0.50;0.20;;;17.60;99.90;;;;;;5026549;28;20996;-78
2023/08/14 02:17:47;;;;;;;0.28;0.28;;;17.60;99.90;;;;;;5025151;28;20061;-78
2023/08/14 02:20:14;;;;;;;0.60;0.28;;;17.60;99.90;;;;;;5024667;28;20068;-78
2023/08/14 02:22:41;;;;;;;0.52;0.20;;;17.60;99.90;;;;;;5009104;28;20127;-78
2023/08/14 02:25:08;;;;;;;0.82;0.30;;;17.70;97.80;;;;;;5023856;28;20681;-78
2023/08/14 02:27:34;;;;;;;1.20;0.38;;;17.70;87.40;;;;;;5010583;28;20054;-77
2023/08/14 02:30:01;;;;;;;0.40;0.22;;;17.70;1.00;;;;;;5015131;28;20112;-78
2023/08/14 02:32:28;;;;;;;0.38;0.30;;;17.60;1.00;;;;;;5013326;28;20115;-78
2023/08/14 02:34:56;;;;;;;0.30;0.30;;;17.70;1.00;;;;;;5024293;28;20045;-78
2023/08/14 02:37:22;;;;;;;0.38;0.22;;;17.60;50.60;;;;;;5002640;28;20042;-78
2023/08/14 02:39:49;;;;;;;0.65;0.38;;;17.60;1.00;;;;;;5004207;28;20064;-78
2023/08/14 02:42:17;;;;;;;0.80;0.32;;;17.60;99.90;;;;;;5008499;28;20542;-78
2023/08/14 02:44:44;;;;;;;0.90;0.47;;;17.60;99.90;;;;;;5024949;28;20057;-78
2023/08/14 02:47:11;;;;;;;0.73;0.30;;;17.60;99.90;;;;;;5008454;28;20049;-76
2023/08/14 02:49:37;;;;;;;0.20;0.20;;;17.50;99.90;;;;;;5024869;28;20130;-78
2023/08/14 02:52:04;;;;;;;0.22;0.20;;;17.50;99.90;;;;;;5008253;28;20046;-78
2023/08/14 02:54:31;;;;;;;0.80;0.20;;;17.40;99.90;;;;;;5023658;28;20049;-78
2023/08/14 02:56:58;;;;;;;0.30;0.30;;;17.40;99.90;;;;;;5008292;28;20051;-78
2023/08/14 02:59:24;;;;;;;0.22;0.13;;;17.40;99.90;;;;;;5026377;28;20053;-77
2023/08/14 03:01:51;;;;;;;1.17;0.30;;;17.40;99.90;;;;;;5024662;28;20054;-78
2023/08/14 03:04:18;;;;;;;0.75;0.30;;;17.30;99.90;;;;;;5025270;28;20563;-80
2023/08/14 03:06:45;;;;;;;0.77;0.38;;;17.30;22.20;;;;;;5007995;28;20114;-80
2023/08/14 03:09:11;;;;;;;0.45;0.10;;;17.30;68.50;;;;;;5008684;28;20365;-80
2023/08/14 03:11:38;;;;;;;0.32;0.20;;;17.30;99.90;;;;;;5024001;28;20075;-81
2023/08/14 03:14:05;;;;;;;0.50;0.30;;;17.30;99.90;;;;;;5024130;28;20046;-80
2023/08/14 03:16:32;;;;;;;0.40;0.38;;;17.30;99.90;;;;;;5007865;28;20053;-79
2023/08/14 03:18:59;;;;;;;0.20;0.20;;;17.30;99.90;;;;;;5004175;28;20058;-80
2023/08/14 03:21:25;;;;;;;0.88;0.28;;;17.20;99.90;;;;;;5004509;28;20046;-78
2023/08/14 03:23:52;;;;;;;0.20;0.20;;;17.20;99.90;;;;;;5024084;28;20045;-78
2023/08/14 03:26:19;;;;;;;1.15;0.40;;;17.10;99.90;;;;;;5023100;28;20135;-77
2023/08/14 03:28:45;;;;;;;0.82;0.30;;;17.10;99.90;;;;;;5025843;28;20083;-76
2023/08/14 03:31:13;;;;;;;0.30;0.20;;;17.00;1.00;;;;;;5024149;28;20053;-77
2023/08/14 03:33:39;;;;;;;0.47;0.22;;;17.00;1.00;;;;;;5025260;28;20140;-79
2023/08/14 03:36:06;;;;;;;0.68;0.30;;;16.90;1.00;;;;;;5025289;28;20430;-78
2023/08/14 03:38:33;;;;;;;0.28;0.20;;;16.90;99.90;;;;;;5025430;28;20505;-79
2023/08/14 03:41:00;;;;;;;0.73;0.32;;;16.90;99.90;;;;;;5024352;28;20049;-77
2023/08/14 03:43:27;;;;;;;0.30;0.25;;;16.80;99.90;;;;;;5025354;28;20037;-78
2023/08/14 03:45:54;;;;;;;0.75;0.32;;;16.70;99.90;;;;;;5007406;28;20411;-77
2023/08/14 03:48:21;;;;;;;0.30;0.30;;;16.60;1.00;;;;;;5023908;28;20136;-77
2023/08/14 03:50:49;;;;;;;0.60;0.30;;;16.50;1.00;;;;;;5023308;28;20045;-77
2023/08/14 03:53:16;;;;;;;0.20;0.20;;;16.50;1.00;;;;;;5023806;28;20061;-77
2023/08/14 03:55:44;;;;;;;0.20;0.20;;;16.40;10.90;;;;;;5023222;28;20054;-77
2023/08/14 03:58:11;;;;;;;0.45;0.30;;;16.40;93.10;;;;;;5025416;28;20114;-77
2023/08/14 04:00:37;;;;;;;0.45;0.22;;;16.40;99.90;;;;;;5024981;28;20385;-77
2023/08/14 04:03:04;;;;;;;0.98;0.43;;;16.40;99.90;;;;;;5024931;28;20497;-77
2023/08/14 04:05:35;;;;;;;0.75;0.30;;;16.40;99.90;;;;;;5024636;28;20086;-78
2023/08/14 04:08:02;;;;;;;1.00;0.43;;;16.40;99.90;;;;;;5019912;28;20448;-78
2023/08/14 04:10:28;;;;;;;0.80;0.30;;;16.30;99.90;;;;;;5023597;28;20123;-79
2023/08/14 04:12:55;;;;;;;0.15;0.13;;;16.30;99.90;;;;;;5024538;28;20041;-78
2023/08/14 04:15:25;;;;;;;0.25;0.25;;;16.40;99.90;;;;;;5006842;28;20470;-78
2023/08/14 04:17:51;;;;;;;0.57;0.30;;;16.40;99.90;;;;;;5023667;28;20046;-78
2023/08/14 04:20:18;;;;;;;0.40;0.30;;;16.40;99.90;;;;;;5024310;28;20129;-78
2023/08/14 04:22:45;;;;;;;0.20;0.20;;;16.40;1.00;;;;;;5022944;28;20613;-78
2023/08/14 04:25:12;;;;;;;0.28;0.10;;;16.40;1.00;;;;;;5019538;28;20052;-78
2023/08/14 04:27:39;;;;;;;0.30;0.22;;;16.40;1.00;;;;;;5018799;28;20041;-78
2023/08/14 04:30:06;;;;;;;0.28;0.20;;;16.40;1.00;;;;;;5024757;28;20057;-78
2023/08/14 04:32:33;;;;;;;0.40;0.20;;;16.50;1.00;;;;;;5024289;28;20148;-77
2023/08/14 04:35:00;;;;;;;0.65;0.38;;;16.50;1.00;;;;;;5022691;28;20049;-78
2023/08/14 04:37:27;;;;;;;0.20;0.20;;;16.50;1.00;;;;;;5006671;28;20672;-78
2023/08/14 04:39:53;;;;;;;0.35;0.20;;;16.50;1.00;;;;;;5022115;28;20158;-78
2023/08/14 04:42:20;;;;;;;0.45;0.40;;;16.50;1.00;;;;;;5024712;28;20699;-79
2023/08/14 04:44:47;;;;;;;0.32;0.10;;;16.60;1.00;;;;;;5024213;28;20258;-79
2023/08/14 04:47:14;;;;;;;0.38;0.28;;;16.60;1.00;;;;;;5025107;28;20053;-81
2023/08/14 04:49:40;;;;;;;0.17;0.17;;;16.60;1.00;;;;;;5018967;28;20536;-80
2023/08/14 04:52:07;;;;;;;0.43;0.40;;;16.60;1.00;;;;;;5024574;28;20630;-80
2023/08/14 04:54:34;;;;;;;0.35;0.30;;;16.60;1.00;;;;;;5017077;28;20057;-79
2023/08/14 04:57:01;;;;;;;0.32;0.22;;;16.50;1.00;;;;;;5010170;28;20822;-79
2023/08/14 04:59:28;;;;;;;0.40;0.40;;;16.50;1.00;;;;;;5003550;28;20061;-80
2023/08/14 05:01:55;;;;;;;0.50;0.30;;;16.50;1.00;;;;;;4995637;28;20073;-81
2023/08/14 05:04:23;;;;;;;0.30;0.30;;;16.50;1.00;;;;;;5010745;28;20042;-80
2023/08/14 05:06:51;;;;;;;0.85;0.45;;;16.60;1.00;;;;;;5002338;28;20056;-80
2023/08/14 05:09:17;;;;;;;0.60;0.40;;;16.60;1.00;;;;;;5042541;28;20042;-80
2023/08/14 05:11:53;;;;;;;0.20;0.20;;;16.60;1.00;;;;;;5019644;28;20429;-81
2023/08/14 05:14:19;;;;;;;0.47;0.35;;;16.60;1.00;;;;;;5015702;28;20049;-81
2023/08/14 05:16:46;;;;;;;0.20;0.20;;;16.70;1.00;;;;;;5001613;28;20124;-81
2023/08/14 05:19:13;;;;;;;0.32;0.22;;;16.70;1.00;;;;;;5018217;28;20052;-81
2023/08/14 05:21:40;;;;;;;1.08;0.50;;;16.80;1.00;;;;;;5015642;28;20104;-82
2023/08/14 05:24:07;;;;;;;0.73;0.35;;;16.80;1.00;;;;;;5014792;28;20116;-80
2023/08/14 05:26:34;;;;;;;0.60;0.30;;;16.80;1.00;;;;;;4997255;28;20060;-79
2023/08/14 05:29:01;;;;;;;0.40;0.30;;;16.90;1.00;;;;;;4985879;28;20049;-78
2023/08/14 05:31:27;;;;;;;0.32;0.30;;;16.90;1.00;;;;;;5021138;28;20046;-79
2023/08/14 05:33:54;;;;;;;0.47;0.30;;;17.00;1.00;;;;;;5003702;28;20042;-78
2023/08/14 05:36:21;;;;;;;0.47;0.47;;;17.00;1.00;;;;;;5019989;28;20525;-80
2023/08/14 05:38:48;;;;;;;0.20;0.20;;;17.10;1.00;;;;;;5019648;28;20187;-79
2023/08/14 05:41:15;;;;;;;0.20;0.20;;;17.10;1.00;;;;;;5018576;28;20110;-80
2023/08/14 05:43:42;;;;;;;0.47;0.40;;;17.20;1.00;;;;;;5025417;28;20050;-80
2023/08/14 05:46:08;;;;;;;0.40;0.20;;;17.30;1.00;;;;;;5018478;28;20045;-80
2023/08/14 05:48:35;;;;;;;0.80;0.30;;;17.40;1.00;;;;;;5019329;28;20466;-83
2023/08/14 05:51:02;;;;;;;1.20;0.80;;;17.50;1.00;;;;;;5030164;28;20440;-80
2023/08/14 05:53:29;;;;;;;0.60;0.50;;;17.50;1.00;;;;;;5033434;28;20049;-80
2023/08/14 05:55:56;;;;;;;0.80;0.52;;;17.60;1.00;;;;;;5003002;28;20607;-81
2023/08/14 05:58:22;;;;;;;1.35;0.50;;;17.60;1.00;;;;;;5013818;28;20124;-80
2023/08/14 06:00:49;;;;;;;0.45;0.45;;;17.60;1.00;;;;;;5012342;28;20048;-80
2023/08/14 06:03:16;;;;;;;0.70;0.40;;;17.60;1.00;;;;;;5023831;28;20063;-80
2023/08/14 06:05:59;;;;;;;0.70;0.60;;;17.60;1.00;;;;;;5005568;28;20123;-80
2023/08/14 06:08:25;;;;;;;0.63;0.30;;;17.60;1.00;;;;;;5004404;28;20128;-80
2023/08/14 06:10:52;;;;;;;1.42;0.50;;;17.60;1.00;;;;;;5019797;28;20122;-79
2023/08/14 06:13:19;;;;;;;0.93;0.38;;;17.70;1.00;;;;;;5020764;28;20099;-80
2023/08/14 06:15:46;;;;;;;0.65;0.35;;;17.70;1.00;;;;;;5022220;28;20149;-80
2023/08/14 06:18:13;;;;;;;0.40;0.40;;;17.60;1.00;;;;;;5007563;28;20108;-80
2023/08/14 06:20:40;;;;;;;0.60;0.30;;;17.70;1.00;;;;;;5020470;28;20053;-80
2023/08/14 06:23:07;;;;;;;0.50;0.47;;;17.70;1.00;;;;;;5021557;28;20053;-80
2023/08/14 06:25:34;;;;;;;0.30;0.20;;;17.70;1.00;;;;;;5016791;28;20132;-80
2023/08/14 06:28:01;;;;;;;0.32;0.30;;;17.70;1.00;;;;;;5016006;28;20049;-80
2023/08/14 06:30:27;;;;;;;0.43;0.30;;;17.70;1.00;;;;;;5021072;28;20608;-80
2023/08/14 06:32:54;;;;;;;0.60;0.30;;;17.70;1.00;;;;;;5020719;28;20049;-80
2023/08/14 06:35:24;;;;;;;0.90;0.47;;;17.80;1.00;;;;;;5021536;28;20257;-80
2023/08/14 06:37:51;;;;;;;0.32;0.28;;;17.90;1.00;;;;;;5024840;28;20045;-80
2023/08/14 06:40:18;;;;;;;0.20;0.20;;;17.90;1.00;;;;;;5006633;28;20103;-80
2023/08/14 06:42:45;;;;;;;0.47;0.25;;;18.00;99.90;;;;;;5023651;28;20563;-80
2023/08/14 06:45:12;;;;;;;0.45;0.35;;;18.00;99.90;;;;;;5023921;28;20620;-80
2023/08/14 06:47:44;;;;;;;0.35;0.28;;;18.00;99.90;;;;;;5024632;28;20146;-80
2023/08/14 06:50:12;;;;;;;0.43;0.43;;;18.10;99.90;;;;;;5022348;28;20353;-80
2023/08/14 06:52:39;;;;;;;0.50;0.38;;;18.10;99.90;;;;;;5022870;28;20617;-80
2023/08/14 06:55:06;;;;;;;0.60;0.38;;;18.10;99.90;;;;;;5021889;28;20441;-80
2023/08/14 06:57:33;;;;;;;0.20;0.20;;;18.20;99.90;;;;;;5022216;28;20041;-80
2023/08/14 07:00:04;;;;;;;0.68;0.35;;;18.30;99.90;;;;;;5022049;28;20456;-81
2023/08/14 07:02:31;;;;;;;0.50;0.30;;;18.40;99.90;;;;;;5022100;28;20332;-80
2023/08/14 07:04:58;;;;;;;0.68;0.35;;;18.60;99.90;;;;;;5018019;28;20072;-79
2023/08/14 07:07:24;;;;;;;0.20;0.20;;;18.70;99.90;;;;;;5022565;28;20304;-79
2023/08/14 07:09:51;;;;;;;0.77;0.35;;;18.80;99.90;;;;;;5021919;28;20093;-77
2023/08/14 07:12:18;;;;;;;0.30;0.30;;;18.90;99.90;;;;;;5022020;28;20103;-80
2023/08/14 07:14:46;;;;;;;0.45;0.30;;;18.90;99.90;;;;;;5020550;28;20083;-80
2023/08/14 07:17:12;;;;;;;0.30;0.30;;;19.00;99.90;;;;;;5002667;28;20061;-80
2023/08/14 07:19:39;;;;;;;0.77;0.40;;;19.10;99.90;;;;;;5013286;28;20068;-80
2023/08/14 07:22:06;;;;;;;1.35;0.50;;;19.20;99.90;;;;;;5021908;28;20126;-79
2023/08/14 07:24:32;;;;;;;0.68;0.50;;;19.20;99.90;;;;;;5021358;28;20100;-80
2023/08/14 07:26:59;;;;;;;0.55;0.47;;;19.30;99.90;;;;;;5006207;28;20133;-79
2023/08/14 07:29:26;;;;;;;0.30;0.30;;;19.40;99.90;;;;;;5023495;28;20045;-80
2023/08/14 07:31:53;;;;;;;0.40;0.40;;;19.40;1.00;;;;;;5023755;28;20069;-79
2023/08/14 07:34:20;;;;;;;0.43;0.40;;;19.50;99.90;;;;;;5023286;28;20645;-79
2023/08/14 07:36:47;;;;;;;0.30;0.30;;;19.50;1.00;;;;;;5021789;28;20493;-80
2023/08/14 07:39:13;;;;;;;0.50;0.40;;;19.60;1.00;;;;;;5022583;28;20335;-79
2023/08/14 07:41:40;;;;;;;0.30;0.30;;;19.70;1.00;;;;;;5022326;28;20110;-80
2023/08/14 07:44:07;;;;;;;0.47;0.40;;;19.80;99.90;;;;;;5022120;28;20049;-80
2023/08/14 07:46:33;;;;;;;0.45;0.43;;;19.90;1.00;;;;;;5005835;28;20049;-80
2023/08/14 07:49:00;;;;;;;1.23;0.60;;;19.90;99.90;;;;;;5022396;28;20560;-80
2023/08/14 07:51:27;;;;;;;0.50;0.40;;;19.90;99.90;;;;;;5003813;28;20475;-80
2023/08/14 07:53:54;;;;;;;0.30;0.30;;;19.80;99.90;;;;;;5022973;28;20143;-80
2023/08/14 07:56:21;;;;;;;0.43;0.40;;;19.90;99.90;;;;;;5020640;28;20186;-81
2023/08/14 07:58:47;;;;;;;0.50;0.40;;;19.90;99.90;;;;;;5001188;28;20136;-80
2023/08/14 08:01:14;;;;;;;0.77;0.60;;;19.90;99.90;;;;;;5019025;28;20543;-78
2023/08/14 08:03:41;;;;;;;0.43;0.40;;;19.80;1.00;;;;;;5015729;28;20444;-79
2023/08/14 08:06:08;;;;;;;0.60;0.40;;;19.70;1.00;;;;;;5012156;28;20096;-79
2023/08/14 08:08:34;;;;;;;0.57;0.38;;;19.70;99.90;;;;;;5018885;28;20528;-78
2023/08/14 08:11:01;;;;;;;0.57;0.50;;;19.60;92.10;;;;;;5019346;28;20049;-79
2023/08/14 08:13:28;;;;;;;0.90;0.50;;;19.60;1.00;;;;;;5020082;28;20061;-78
2023/08/14 08:15:55;;;;;;;0.65;0.30;;;19.70;99.90;;;;;;5001239;28;20971;-78
2023/08/14 08:18:22;;;;;;;0.70;0.50;;;19.70;99.90;;;;;;5008868;28;20061;-79
2023/08/14 08:20:48;;;;;;;0.60;0.50;;;19.80;99.90;;;;;;5015088;28;20546;-79
2023/08/14 08:23:15;;;;;;;0.47;0.40;;;19.80;7.80;;;;;;5015242;28;20529;-78
2023/08/14 08:25:42;;;;;;;1.00;0.73;;;19.90;1.00;;;;;;5017129;28;20061;-79
2023/08/14 08:28:09;;;;;;;0.75;0.35;;;19.90;99.90;;;;;;5016874;28;20057;-79
2023/08/14 08:30:37;;;;;;;1.48;0.40;;;20.00;99.90;;;;;;4997064;28;20050;-78
2023/08/14 08:33:04;;;;;;;0.88;0.40;;;20.00;99.90;;;;;;4998869;28;20080;-78
2023/08/14 08:35:31;;;;;;;0.57;0.50;;;20.20;99.90;;;;;;5015457;28;20053;-78
2023/08/14 08:37:58;;;;;;;0.73;0.40;;;20.30;89.80;;;;;;5016159;28;20053;-79
2023/08/14 08:40:25;;;;;;;1.45;0.60;;;20.40;99.90;;;;;;5014295;28;20475;-79
2023/08/14 08:42:51;;;;;;;1.23;0.70;;;20.60;1.00;;;;;;4998969;28;20054;-79
2023/08/14 08:45:18;;;;;;;0.45;0.38;;;20.60;1.00;;;;;;4995298;28;20050;-79
2023/08/14 08:47:46;;;;;;;1.45;0.60;;;20.60;1.00;;;;;;5014883;28;20053;-79
2023/08/14 08:50:13;;;;;;;0.98;0.60;;;20.50;99.80;;;;;;5007900;28;20528;-78
2023/08/14 08:52:40;;;;;;;1.30;0.70;;;20.50;99.90;;;;;;5008441;28;20046;-79
2023/08/14 08:55:07;;;;;;;0.65;0.40;;;20.40;1.00;;;;;;5017580;28;20167;-78
2023/08/14 08:57:34;;;;;;;0.98;0.60;;;20.40;1.00;;;;;;5019047;28;20084;-78
2023/08/14 09:00:03;;;;;;;1.00;0.60;;;20.60;99.90;;;;;;4995500;28;20088;-79
2023/08/14 09:02:30;;;;;;;0.82;0.60;;;20.70;99.90;;;;;;5009224;28;20073;-78
2023/08/14 09:04:57;;;;;;;1.35;0.77;;;20.80;99.90;;;;;;5017060;28;20045;-79
2023/08/14 09:07:24;;;;;;;0.73;0.50;;;20.90;1.00;;;;;;5018098;28;20468;-79
2023/08/14 09:09:51;;;;;;;0.60;0.60;;;21.00;99.90;;;;;;5014374;28;20554;-79
2023/08/14 09:12:18;;;;;;;1.15;0.60;;;21.20;99.90;;;;;;5043799;28;20058;-79
2023/08/14 09:14:59;;;;;;;1.13;0.60;;;21.50;99.90;;;;;;5023345;28;20561;-79
2023/08/14 09:17:25;;;;;;;1.48;0.50;;;21.60;99.00;;;;;;5012591;28;20160;-79
2023/08/14 09:19:52;;;;;;;0.93;0.47;;;21.70;99.90;;;;;;5002455;28;20053;-79
2023/08/14 09:22:19;;;;;;;1.02;0.60;;;21.70;99.90;;;;;;5000464;28;20400;-80
2023/08/14 09:24:48;;;;;;;1.08;0.60;;;21.80;1.00;;;;;;5011121;28;20054;-80
2023/08/14 09:27:15;;;;;;;1.33;0.70;;;21.80;99.90;;;;;;5005042;28;20044;-79
2023/08/14 09:29:43;;;;;;;3.40;1.15;;;21.80;1.00;;;;;;5021262;28;20057;-81
2023/08/14 09:32:10;;;;;;;1.17;0.40;;;21.80;1.00;;;;;;4989889;28;20057;-81
2023/08/14 09:34:37;;;;;;;0.88;0.60;;;22.10;99.90;;;;;;5019705;28;20154;-82
2023/08/14 09:37:05;;;;;;;0.63;0.50;;;22.30;63.30;;;;;;5024820;28;20136;-81
2023/08/14 09:39:32;;;;;;;0.88;0.50;;;22.40;99.90;;;;;;5023590;28;20049;-80
2023/08/14 09:41:59;;;;;;;0.98;0.40;;;22.20;99.90;;;;;;5008804;28;20050;-81
2023/08/14 09:44:26;;;;;;;1.13;0.40;;;22.40;99.90;;;;;;5007056;28;20049;-81
2023/08/14 09:46:54;;;;;;;1.15;0.52;;;22.60;99.90;;;;;;5024962;28;20093;-81
2023/08/14 09:49:22;;;;;;;0.65;0.38;;;22.80;99.90;;;;;;5025518;28;20053;-81
2023/08/14 09:51:55;;;;;;;1.60;0.70;;;23.00;99.90;;;;;;5023965;28;20051;-81
2023/08/14 09:54:33;;;;;;;0.77;0.50;;;23.00;99.90;;;;;;5024871;28;20129;-81
2023/08/14 09:57:03;;;;;;;1.83;0.70;;;23.10;99.90;;;;;;5024570;28;20049;-82
2023/08/14 09:59:35;;;;;;;1.85;0.65;;;23.10;99.90;;;;;;5024234;28;20057;-81
2023/08/14 10:02:03;;;;;;;1.15;0.57;;;23.00;98.60;;;;;;5007972;28;20045;-81
2023/08/14 10:04:30;;;;;;;1.83;0.75;;;23.10;99.90;;;;;;5007525;28;20049;-82
2023/08/14 10:06:56;;;;;;;1.15;0.50;;;23.20;99.90;;;;;;5007625;28;20130;-81
2023/08/14 10:09:25;;;;;;;0.93;0.63;;;23.40;99.90;;;;;;5023688;28;20129;-82
2023/08/14 10:11:53;;;;;;;0.93;0.50;;;23.60;99.90;;;;;;5006942;28;20159;-81
2023/08/14 10:14:19;;;;;;;2.05;0.80;;;23.90;99.00;;;;;;5023842;28;20068;-82
2023/08/14 10:16:46;;;;;;;1.13;0.70;;;24.00;95.80;;;;;;5007040;28;20445;-82
2023/08/14 10:19:13;;;;;;;0.80;0.52;;;24.00;94.30;;;;;;5007572;28;20064;-81
2023/08/14 10:21:40;;;;;;;0.93;0.50;;;24.10;92.10;;;;;;5022098;28;20084;-82
2023/08/14 10:24:07;;;;;;;0.75;0.50;;;24.10;87.30;;;;;;5023325;28;20109;-82
2023/08/14 10:26:34;;;;;;;1.30;0.63;;;24.10;78.90;;;;;;5006000;28;20053;-81
2023/08/14 10:29:01;;;;;;;0.82;0.40;;;24.00;74.00;;;;;;5025475;28;20072;-81
2023/08/14 10:31:28;;;;;;;1.05;0.50;;;24.00;76.30;;;;;;5023375;28;20127;-82
2023/08/14 10:33:56;;;;;;;0.60;0.50;;;23.90;74.70;;;;;;5007571;28;20049;-81
2023/08/14 10:36:26;;;;;;;1.15;0.60;;;23.80;72.50;;;;;;5022779;28;20064;-82
2023/08/14 10:38:53;;;;;;;0.88;0.40;;;23.70;75.90;;;;;;4991502;28;20057;-81
2023/08/14 10:41:32;;;;;;;1.17;0.50;;;23.70;69.60;;;;;;5023755;28;20447;-81
2023/08/14 10:43:58;;;;;;;0.45;0.30;;;23.70;65.40;;;;;;5023362;28;20806;-81
2023/08/14 10:46:25;;;;;;;0.90;0.43;;;23.90;69.90;;;;;;5006251;28;20049;-81
2023/08/14 10:48:52;;;;;;;1.23;0.50;;;24.00;70.50;;;;;;5007075;28;20053;-82
2023/08/14 10:51:22;;;;;;;0.47;0.47;;;24.00;71.40;;;;;;5006262;28;20049;-82
2023/08/14 10:53:54;;;;;;;1.35;0.73;;;23.90;65.10;;;;;;5024109;28;20052;-81
2023/08/14 10:56:21;;;;;;;;;;;23.80;60.80;;;;;;5006218;28;20056;-82
2023/08/14 10:58:50;;;;;;;2.08;0.70;;;23.60;61.70;;;;;;5022832;28;19929;-83
2023/08/14 11:01:17;;;;;;;1.45;0.60;;;23.40;60.00;;;;;;5006968;28;20972;-82
2023/08/14 11:04:06;;;;;;;0.43;0.43;;;23.30;62.90;;;;;;5023480;28;20049;-82
2023/08/14 11:06:58;;;;;;;1.13;0.65;;;23.30;57.60;;;;;;5004186;28;20136;-81
2023/08/14 11:09:31;;;;;;;1.83;0.83;;;23.30;61.50;;;;;;5018413;28;20061;-79
2023/08/14 11:12:07;;;;;;;1.58;0.93;;;23.10;57.80;;;;;;5002365;28;20299;-83
2023/08/14 11:14:35;;;;;;;1.17;0.60;;;23.00;58.00;;;;;;5013191;28;20045;-82
2023/08/14 11:17:02;;;;;;;3.10;0.90;;;22.70;55.80;;;;;;5012263;28;20104;-82
2023/08/14 11:19:29;;;;;;;1.13;0.70;;;22.60;67.30;;;;;;5014685;28;20131;-81
2023/08/14 11:21:57;;;;;;;1.73;0.90;;;22.50;56.50;;;;;;5019808;28;20115;-82
2023/08/14 11:24:24;;;;;;;0.80;0.60;;;22.50;67.70;;;;;;5018262;28;20053;-82
2023/08/14 11:26:51;;;;;;;0.90;0.40;;;22.50;60.80;;;;;;5001543;28;20104;-82
2023/08/14 11:29:18;;;;;;;1.25;0.68;;;22.70;69.40;;;;;;5023722;28;20564;-82
2023/08/14 11:31:45;;;;;;;1.25;0.70;;;22.80;59.30;;;;;;5014626;28;20052;-82
2023/08/14 11:34:15;;;;;;;1.35;0.70;;;22.90;56.90;;;;;;5018132;28;20077;-83
2023/08/14 11:36:51;;;;;;;2.88;0.93;;;23.30;59.80;;;;;;5018899;28;20060;-82
2023/08/14 11:39:33;;;;;;;1.05;0.65;;;23.60;56.60;;;;;;5017738;28;20418;-83
2023/08/14 11:42:02;;;;;;;1.33;0.70;;;24.00;56.20;;;;;;5010013;28;20056;-84
2023/08/14 11:44:29;;;;;;;1.05;0.70;;;24.30;70.00;;;;;;5011095;28;20176;-82
2023/08/14 11:46:56;;;;;;;1.00;0.60;;;24.70;57.10;;;;;;5008942;28;20520;-83
2023/08/14 11:49:24;;;;;;;1.73;0.80;;;25.20;51.10;;;;;;5001203;28;20045;-81
2023/08/14 11:51:51;;;;;;;1.10;0.52;;;25.60;48.90;;;;;;5000892;28;20049;-81
2023/08/14 11:54:18;;;;;;;1.05;0.70;;;25.70;43.30;;;;;;5018711;28;20049;-81
2023/08/14 11:56:47;;;;;;;1.58;0.93;;;25.90;39.30;;;;;;5017519;28;20053;-82
2023/08/14 11:59:15;;;;;;;1.50;1.05;;;25.80;32.70;;;;;;5018604;28;20049;-82
2023/08/14 12:01:41;;;;;;;2.00;0.90;;;25.80;31.40;;;;;;5017877;28;20060;-82
2023/08/14 12:04:08;;;;;;;1.17;0.63;;;25.70;30.30;;;;;;5019048;28;20119;-82
2023/08/14 12:06:35;;;;;;;2.63;1.00;;;25.80;31.40;;;;;;4997803;28;20469;-82
2023/08/14 12:09:06;;;;;;;1.13;0.80;;;25.60;29.40;;;;;;5000413;28;20160;-82
2023/08/14 12:11:33;;;;;;;2.45;1.00;;;25.70;27.90;;;;;;5015642;28;20107;-82
2023/08/14 12:14:03;;;;;;;1.33;0.80;;;25.80;28.60;;;;;;5006692;28;20105;-83
2023/08/14 12:16:30;;;;;;;0.90;0.57;;;26.10;32.50;;;;;;5020430;28;20060;-83
2023/08/14 12:18:57;;;;;;;1.13;0.50;;;25.90;27.30;;;;;;5022681;28;20056;-82
2023/08/14 12:21:27;;;;;;;0.75;0.70;;;25.60;26.30;;;;;;5021806;28;20488;-82
2023/08/14 12:23:54;;;;;;;2.10;0.88;;;25.70;30.50;;;;;;5021129;28;20077;-82
2023/08/14 12:26:21;;;;;;;1.13;0.70;;;26.30;41.70;;;;;;5000902;28;20131;-82
2023/08/14 12:28:48;;;;;;;1.67;0.85;;;27.00;32.90;;;;;;5019971;28;20047;-83
2023/08/14 12:31:14;;;;;;;2.03;0.90;;;27.20;28.40;;;;;;5000075;28;20393;-82
2023/08/14 12:33:41;;;;;;;1.73;0.70;;;27.40;26.30;;;;;;5012240;28;20045;-83
2023/08/14 12:36:11;;;;;;;1.20;0.70;;;27.60;25.60;;;;;;5000719;28;20049;-83
2023/08/14 12:38:37;;;;;;;2.42;0.80;;;27.80;22.40;;;;;;5015417;28;20472;-83
2023/08/14 12:41:05;;;;;;;3.45;1.20;;;27.60;17.50;;;;;;5013102;28;20077;-83
2023/08/14 12:43:31;;;;;;;2.22;1.02;;;27.40;16.40;;;;;;5013639;28;20041;-82
2023/08/14 12:46:08;;;;;;;1.70;0.73;;;27.40;14.30;;;;;;5013221;28;20049;-81
2023/08/14 12:48:36;;;;;;;0.60;0.40;;;27.70;15.20;;;;;;5016232;28;20145;-82
2023/08/14 12:51:03;;;;;;;2.10;0.70;;;28.20;15.30;;;;;;5019839;28;20046;-83
2023/08/14 12:53:32;;;;;;;1.25;0.65;;;27.90;11.30;;;;;;5004516;28;20050;-82